createdAt,value
2019-03-04T00:03:41.878Z,99166.27
2019-03-04T00:08:44.580Z,99160.59
2019-03-04T00:13:47.276Z,99151.88
2019-03-04T00:18:49.984Z,99132.36
2019-03-04T00:23:52.677Z,99115.45
2019-03-04T00:28:55.395Z,99132.87
2019-03-04T00:33:58.240Z,99154.98
2019-03-04T00:39:00.973Z,99162.22
2019-03-04T00:44:03.693Z,99183.98
2019-03-04T00:49:06.387Z,99172.67
2019-03-04T00:54:09.083Z,99157.00
2019-03-04T00:59:11.784Z,99154.66
2019-03-04T01:04:14.498Z,99150.05
2019-03-04T01:09:17.433Z,99129.45
2019-03-04T01:14:20.160Z,99123.58
2019-03-04T01:19:22.897Z,99094.97
2019-03-04T01:24:25.622Z,99089.75
2019-03-04T01:29:28.315Z,99079.73
2019-03-04T01:34:31.006Z,99050.22
2019-03-04T01:39:33.696Z,99017.28
2019-03-04T01:44:36.398Z,99007.17
2019-03-04T01:49:39.120Z,98987.82
2019-03-04T01:54:41.841Z,98974.52
2019-03-04T01:59:44.552Z,98986.61
2019-03-04T02:04:47.237Z,98978.73
2019-03-04T02:09:49.956Z,98964.52
2019-03-04T02:14:52.713Z,98948.38
2019-03-04T02:19:55.412Z,98943.84
2019-03-04T02:24:58.134Z,98908.19
2019-03-04T02:30:00.839Z,98902.23
2019-03-04T02:35:03.856Z,98893.98
2019-03-04T02:40:07.372Z,98878.89
2019-03-04T02:45:13.401Z,98874.13
2019-03-04T02:50:16.139Z,98846.52
2019-03-04T02:55:18.852Z,98825.21
2019-03-04T03:00:21.609Z,98826.17
2019-03-04T03:05:24.318Z,98815.18
2019-03-04T03:10:27.022Z,98808.11
2019-03-04T03:15:29.722Z,98772.47
2019-03-04T03:20:32.438Z,98764.48
2019-03-04T03:25:35.132Z,98765.80
2019-03-04T03:30:37.854Z,98772.84
2019-03-04T03:35:40.582Z,98780.27
2019-03-04T03:40:43.316Z,98746.41
2019-03-04T03:45:46.029Z,98723.45
2019-03-04T03:50:48.750Z,98716.66
2019-03-04T03:55:51.588Z,98691.92
2019-03-04T04:00:54.372Z,98697.19
2019-03-04T04:05:57.138Z,98686.42
2019-03-04T04:10:59.931Z,98681.87
2019-03-04T04:16:02.641Z,98658.58
2019-03-04T04:21:05.349Z,98631.18
2019-03-04T04:26:20.406Z,98593.90
2019-03-04T04:31:23.120Z,98571.89
2019-03-04T04:36:25.822Z,98582.66
2019-03-04T04:41:28.513Z,98583.91
2019-03-04T04:46:54.242Z,98563.31
2019-03-04T04:51:56.949Z,98564.64
2019-03-04T04:56:59.653Z,98509.91
2019-03-04T05:02:02.374Z,98498.39
2019-03-04T05:07:05.069Z,98482.58
2019-03-04T05:12:07.767Z,98500.30
2019-03-04T05:17:10.469Z,98457.14
2019-03-04T05:22:13.192Z,98426.44
2019-03-04T05:27:15.914Z,98411.09
2019-03-04T05:32:18.610Z,98413.78
2019-03-04T05:37:21.319Z,98377.14
2019-03-04T05:42:24.632Z,98396.13
2019-03-04T05:47:27.446Z,98371.28
2019-03-04T05:52:30.168Z,98337.80
2019-03-04T05:57:32.851Z,98332.50
2019-03-04T06:02:35.548Z,98338.48
2019-03-04T06:07:41.882Z,98319.98
2019-03-04T06:12:44.587Z,98286.24
2019-03-04T06:17:47.334Z,98279.09
2019-03-04T06:22:50.051Z,98287.23
2019-03-04T06:27:52.764Z,98266.37
2019-03-04T06:32:55.477Z,98263.68
2019-03-04T06:37:58.709Z,98261.23
2019-03-04T06:43:01.549Z,98244.34
2019-03-04T06:48:09.174Z,98233.81
2019-03-04T06:53:11.923Z,98207.07
2019-03-04T06:58:14.631Z,98228.27
2019-03-04T07:03:53.986Z,98198.73
2019-03-04T07:09:15.701Z,98170.14
2019-03-04T07:14:18.428Z,98186.55
2019-03-04T07:19:32.852Z,98156.63
2019-03-04T07:24:35.565Z,98163.80
2019-03-04T07:29:39.192Z,98147.47
2019-03-04T07:34:41.894Z,98128.56
2019-03-04T07:39:44.618Z,98108.94
2019-03-04T07:44:47.822Z,98114.83
2019-03-04T07:49:50.717Z,98326.64
2019-03-04T07:54:53.403Z,98329.55
2019-03-04T07:59:57.017Z,98348.66
2019-03-04T08:04:59.790Z,98320.23
2019-03-04T08:11:18.619Z,98336.09
2019-03-04T08:16:21.353Z,98315.52
2019-03-04T08:21:24.106Z,98321.70
2019-03-04T08:26:26.816Z,98291.00
2019-03-04T08:31:29.748Z,98249.42
2019-03-04T08:36:32.468Z,98300.98
2019-03-04T08:41:35.190Z,98193.72
2019-03-04T08:46:37.908Z,98303.63
2019-03-04T08:51:40.630Z,98278.16
2019-03-04T08:56:43.603Z,98260.73
2019-03-04T09:01:46.305Z,98293.26
2019-03-04T09:06:49.046Z,98289.70
2019-03-04T09:11:51.903Z,98290.20
2019-03-04T09:16:54.598Z,98306.17
2019-03-04T09:21:57.305Z,98326.29
2019-03-04T09:26:59.992Z,98312.94
2019-03-04T09:32:02.711Z,98286.27
2019-03-04T09:37:05.436Z,98314.38
2019-03-04T09:42:18.204Z,98316.52
2019-03-04T09:47:20.897Z,98332.36
2019-03-04T09:52:23.600Z,98334.84
2019-03-04T09:57:26.299Z,98317.45
2019-03-04T10:02:40.506Z,98304.95
2019-03-04T10:08:32.414Z,98304.50
2019-03-04T10:13:29.481Z,98252.16
2019-03-04T10:24:32.784Z,98266.64
2019-03-04T10:30:14.796Z,98275.35
2019-03-04T10:36:19.138Z,98253.70
2019-03-04T10:42:17.952Z,98250.45
2019-03-04T10:47:20.675Z,98254.56
2019-03-04T10:52:23.415Z,98225.45
2019-03-04T10:57:26.102Z,98231.30
2019-03-04T11:02:28.799Z,98220.41
2019-03-04T11:07:31.509Z,98223.50
2019-03-04T11:12:34.219Z,98224.63
2019-03-04T11:17:37.038Z,98270.87
2019-03-04T11:22:39.930Z,98267.55
2019-03-04T11:27:42.721Z,98282.77
2019-03-04T11:32:45.422Z,98258.53
2019-03-04T11:37:48.139Z,98274.71
2019-03-04T11:42:51.159Z,98287.50
2019-03-04T11:47:54.262Z,98278.31
2019-03-04T11:52:57.765Z,98262.86
2019-03-04T11:58:01.122Z,98242.34
2019-03-04T12:03:03.980Z,98258.34
2019-03-04T12:08:10.154Z,98280.62
2019-03-04T12:13:12.901Z,98378.48
2019-03-04T12:18:15.832Z,98398.15
2019-03-04T12:23:21.148Z,98404.66
2019-03-04T12:28:23.977Z,98385.08
2019-03-04T12:33:27.301Z,98382.74
2019-03-04T12:38:30.762Z,98383.69
2019-03-04T12:43:34.203Z,98392.95
2019-03-04T12:48:37.560Z,98401.72
2019-03-04T12:53:40.999Z,98403.99
2019-03-04T12:58:43.801Z,98415.09
2019-03-04T13:03:46.511Z,98426.17
2019-03-04T13:08:49.212Z,98432.59
2019-03-04T13:13:51.930Z,98436.86
2019-03-04T13:18:54.639Z,98426.05
2019-03-04T13:23:57.323Z,98455.36
2019-03-04T13:29:00.023Z,98447.95
2019-03-04T13:34:02.735Z,98471.31
2019-03-04T13:39:07.189Z,98486.77
2019-03-04T13:44:09.892Z,98502.83
2019-03-04T13:49:12.580Z,98490.54
2019-03-04T13:54:15.301Z,98520.39
2019-03-04T13:59:17.997Z,98523.44
2019-03-04T14:04:20.690Z,98534.33
2019-03-04T14:09:23.405Z,98526.17
2019-03-04T14:14:26.128Z,98542.09
2019-03-04T14:19:28.848Z,98553.59
2019-03-04T14:24:31.603Z,98574.61
2019-03-04T14:29:34.355Z,98590.97
2019-03-04T14:34:37.064Z,98598.70
2019-03-04T14:39:39.920Z,98611.02
2019-03-04T14:44:42.625Z,98608.25
2019-03-04T14:49:45.360Z,98620.52
2019-03-04T14:54:48.067Z,98640.20
2019-03-04T14:59:50.794Z,98646.00
2019-03-04T15:04:53.489Z,98661.88
2019-03-04T15:09:56.191Z,98665.34
2019-03-04T15:14:58.907Z,98677.99
2019-03-04T15:20:08.726Z,98671.27
2019-03-04T15:25:09.713Z,98686.03
2019-03-04T15:30:12.426Z,98703.59
2019-03-04T15:35:15.169Z,98703.48
2019-03-04T15:40:17.888Z,98701.38
2019-03-04T15:45:21.196Z,98725.94
2019-03-04T15:50:24.032Z,98726.80
2019-03-04T15:55:26.722Z,98737.91
2019-03-04T16:00:31.537Z,98734.30
2019-03-04T16:05:34.382Z,98739.91
2019-03-04T16:10:37.131Z,98754.83
2019-03-04T16:15:42.035Z,98764.55
2019-03-04T16:20:44.751Z,98759.40
2019-03-04T16:25:47.552Z,98791.54
2019-03-04T16:30:50.829Z,98789.11
2019-03-04T16:35:53.547Z,98809.92
2019-03-04T16:40:56.269Z,98836.28
2019-03-04T16:45:58.996Z,98837.39
2019-03-04T16:51:01.722Z,98851.02
2019-03-04T16:56:04.624Z,98862.90
2019-03-04T17:01:07.607Z,98865.61
2019-03-04T17:06:10.373Z,98876.55
2019-03-04T17:11:13.239Z,98893.50
2019-03-04T17:16:16.009Z,98899.20
2019-03-04T17:21:18.739Z,98898.19
2019-03-04T17:26:21.470Z,98924.13
2019-03-04T17:31:24.470Z,98931.52
2019-03-04T17:36:27.158Z,98955.70
2019-03-04T17:41:29.867Z,98961.39
2019-03-04T17:46:32.596Z,98982.11
2019-03-04T17:51:35.305Z,98997.59
2019-03-04T17:56:38.036Z,99006.09
2019-03-04T18:01:40.745Z,99027.75
2019-03-04T18:06:43.450Z,99028.13
2019-03-04T18:11:46.158Z,99040.25
2019-03-04T18:16:48.848Z,99059.46
2019-03-04T18:21:51.590Z,99059.00
2019-03-04T18:27:03.620Z,99061.04
2019-03-04T18:32:43.428Z,99077.99
2019-03-04T18:38:43.953Z,99091.20
2019-03-04T18:44:05.751Z,99098.86
2019-03-04T18:49:09.263Z,99104.85
2019-03-04T18:54:20.958Z,99120.39
2019-03-04T19:04:25.935Z,99132.95
2019-03-04T19:09:28.630Z,99144.95
2019-03-04T19:14:31.332Z,99143.72
2019-03-04T19:19:34.041Z,99156.18
2019-03-04T19:24:36.728Z,99164.77
2019-03-04T19:29:39.438Z,99171.87
2019-03-04T19:34:42.138Z,99172.53
2019-03-04T19:39:44.826Z,99178.69
2019-03-04T19:44:47.535Z,99178.32
2019-03-04T19:49:50.233Z,99191.81
2019-03-04T19:54:52.930Z,99193.97
2019-03-04T19:59:55.624Z,99193.65
2019-03-04T20:04:58.321Z,99204.70
2019-03-04T20:10:01.007Z,99217.97
2019-03-04T20:15:10.262Z,99199.31
2019-03-04T20:20:13.016Z,99215.20
2019-03-04T20:25:16.143Z,99211.20
2019-03-04T20:30:18.884Z,99220.34
2019-03-04T20:35:21.706Z,99220.80
2019-03-04T20:40:24.407Z,99238.68
2019-03-04T20:45:27.458Z,99235.54
2019-03-04T20:50:30.167Z,99231.02
2019-03-04T20:55:32.910Z,99244.49
2019-03-04T21:00:35.903Z,99247.70
2019-03-04T21:05:38.691Z,99253.00
2019-03-04T21:10:41.401Z,99255.44
2019-03-04T21:15:44.098Z,99254.52
2019-03-04T21:20:46.787Z,99268.70
2019-03-04T21:26:07.619Z,99258.52
2019-03-04T21:31:53.330Z,99278.24
2019-03-04T21:37:04.466Z,99284.70
2019-03-04T21:42:34.627Z,99280.94
2019-03-04T21:47:44.356Z,99279.03
2019-03-04T21:53:20.658Z,99291.47
2019-03-04T21:58:23.500Z,99290.23
2019-03-04T22:03:30.745Z,99298.67
2019-03-04T22:08:33.455Z,99290.76
2019-03-04T22:13:36.160Z,99298.59
2019-03-04T22:18:38.961Z,99296.50
2019-03-04T22:23:41.696Z,99298.91
2019-03-04T22:28:44.385Z,99301.42
2019-03-04T22:33:47.081Z,99305.09
2019-03-04T22:38:49.781Z,99297.55
2019-03-04T22:43:52.475Z,99301.21
2019-03-04T22:48:55.174Z,99297.40
2019-03-04T22:53:57.865Z,99296.22
2019-03-04T22:59:00.596Z,99298.84
2019-03-04T23:04:12.627Z,99299.45
2019-03-04T23:09:16.562Z,99294.00
2019-03-04T23:14:24.998Z,99316.34
2019-03-04T23:19:27.684Z,99319.80
2019-03-04T23:24:30.419Z,99318.10
2019-03-04T23:29:33.118Z,99323.40
2019-03-04T23:34:35.830Z,99321.56
2019-03-04T23:39:38.549Z,99331.63
2019-03-04T23:44:41.244Z,99317.32
2019-03-04T23:49:43.940Z,99309.50
2019-03-04T23:54:46.638Z,99321.56
2019-03-04T23:59:49.350Z,99319.48
